Machelen, Belgium
Current Conditions -  °F | °C
As of 12:50 PM on Thursday 23 Oct 2014 (Local Time) from EBBR Reporting Station
Broken Clouds Broken Clouds  
Wind Chill: 57°   Ceiling: 3800
Heat Index: 57°   Visibility: 6mi
Dew Point: 48°   Wind: 9mph
Humidity: 72%   Direction: 220°SW
Pressure: 30.21"   Gusts: NA
Location:  50.91°N, 4.44°E
Report Text: EBBR 231050Z 22008KT 9999 FEW015 BKN038 14/09 Q1023 NOSIG
Loading
Personal Weather Stations






























Interactive Weather Map New forecast layout! Learn more

10-Day Weather Forecast

Advertisements
Track Severe Weather on mobile